Time;durP1;ratioP1;P1;durP2;ratioP2;P2;SDS_P1;SDS_P2;PMS_P1;PMS_P2;Temp;Humidity;BMP_temperature;BMP_pressure;BME280_temperature;BME280_humidity;BME280_pressure;Samples;Min_cycle;Max_cycle;Signal;HPM_P1;HPM_P2
2022/06/15 00:00:45;;;;;;;1.63;1.20;;;7.00;99.90;;;;;;8365261;28;20254;-67
2022/06/15 00:04:45;;;;;;;1.83;1.10;;;6.90;99.90;;;;;;8364083;28;20235;-67
2022/06/15 00:08:51;;;;;;;3.50;1.33;;;6.90;99.90;;;;;;8365171;28;20205;-68
2022/06/15 00:12:52;;;;;;;1.90;1.23;;;6.90;99.90;;;;;;8371083;28;20272;-68
2022/06/15 00:16:53;;;;;;;3.13;1.50;;;6.80;1.00;;;;;;8372563;28;20178;-68
2022/06/15 00:20:56;;;;;;;3.60;1.43;;;6.80;1.00;;;;;;8372390;28;20208;-68
2022/06/15 00:24:58;;;;;;;1.80;1.10;;;6.70;1.00;;;;;;8362152;28;20189;-67
2022/06/15 00:28:59;;;;;;;3.00;1.20;;;6.60;1.00;;;;;;8369421;28;20243;-68
2022/06/15 00:33:00;;;;;;;2.40;1.50;;;6.50;1.00;;;;;;8368361;28;20184;-68
2022/06/15 00:37:04;;;;;;;2.33;1.20;;;6.50;99.90;;;;;;8365450;28;20182;-68
2022/06/15 00:41:08;;;;;;;2.13;1.33;;;6.40;99.90;;;;;;8363560;28;20223;-68
2022/06/15 00:45:09;;;;;;;2.33;1.50;;;6.30;99.90;;;;;;8376860;28;20187;-68
2022/06/15 00:49:19;;;;;;;3.80;1.43;;;6.30;99.90;;;;;;8366975;28;20213;-67
2022/06/15 00:53:20;;;;;;;2.20;1.40;;;6.30;99.90;;;;;;8368374;28;20277;-67
2022/06/15 00:57:21;;;;;;;3.00;1.40;;;6.20;99.90;;;;;;8362849;28;20181;-67
2022/06/15 01:01:22;;;;;;;1.80;1.40;;;6.10;99.90;;;;;;8369411;28;20225;-67
2022/06/15 01:05:50;;;;;;;2.13;1.53;;;6.10;99.90;;;;;;8369940;28;20250;-67
2022/06/15 01:10:12;;;;;;;5.20;2.03;;;6.10;99.90;;;;;;8367191;28;20186;-67
2022/06/15 01:14:37;;;;;;;3.63;1.60;;;6.00;99.90;;;;;;8360513;28;20188;-67
2022/06/15 01:18:52;;;;;;;2.07;1.50;;;6.00;99.90;;;;;;8368655;28;20193;-67
2022/06/15 01:23:06;;;;;;;2.33;1.67;;;5.90;1.00;;;;;;8367189;28;20178;-67
2022/06/15 01:27:45;;;;;;;2.60;1.53;;;5.90;1.00;;;;;;8364013;28;20215;-68
2022/06/15 01:31:49;;;;;;;2.00;1.80;;;5.80;1.00;;;;;;8317002;28;20200;-67
2022/06/15 01:35:49;;;;;;;3.27;1.50;;;5.80;1.00;;;;;;8362344;28;20181;-67
2022/06/15 01:40:13;;;;;;;4.63;2.00;;;5.80;1.00;;;;;;8363708;28;20209;-67
2022/06/15 01:44:23;;;;;;;4.00;1.63;;;5.80;1.00;;;;;;8362796;28;20247;-67
2022/06/15 01:48:27;;;;;;;3.13;1.60;;;5.80;1.00;;;;;;8370804;28;20185;-68
2022/06/15 01:52:37;;;;;;;4.37;1.70;;;5.80;1.00;;;;;;8368490;28;20184;-68
2022/06/15 01:56:43;;;;;;;2.47;1.63;;;5.80;1.00;;;;;;8367003;28;20186;-68
2022/06/15 02:00:53;;;;;;;2.17;1.70;;;5.80;24.30;;;;;;8365605;28;20203;-68
2022/06/15 02:05:07;;;;;;;2.93;1.47;;;5.80;29.40;;;;;;8372582;28;20236;-68
2022/06/15 02:09:19;;;;;;;3.67;1.90;;;5.90;58.90;;;;;;8369907;28;20786;-68
2022/06/15 02:13:34;;;;;;;4.50;1.37;;;6.00;99.90;;;;;;8379383;28;20182;-68
2022/06/15 02:17:43;;;;;;;3.63;1.60;;;6.00;99.90;;;;;;8372355;28;20416;-68
2022/06/15 02:21:46;;;;;;;2.33;1.40;;;6.10;99.90;;;;;;8371371;28;20219;-68
2022/06/15 02:25:49;;;;;;;2.53;1.63;;;6.10;99.90;;;;;;8373073;28;20202;-68
2022/06/15 02:29:55;;;;;;;2.60;1.73;;;6.00;99.90;;;;;;8370899;28;20206;-68
2022/06/15 02:33:57;;;;;;;2.67;2.10;;;6.00;98.00;;;;;;8371630;28;20176;-68
2022/06/15 02:37:57;;;;;;;2.63;1.63;;;5.90;99.30;;;;;;8374446;28;20513;-68
2022/06/15 02:42:01;;;;;;;1.87;1.57;;;5.80;67.20;;;;;;8373302;28;20213;-68
2022/06/15 02:46:03;;;;;;;2.70;1.63;;;5.70;26.90;;;;;;8367760;28;20436;-68
2022/06/15 02:50:05;;;;;;;2.17;1.87;;;5.60;8.00;;;;;;8375088;28;20191;-67
2022/06/15 02:54:39;;;;;;;2.60;2.10;;;5.60;26.90;;;;;;8371366;28;20189;-68
2022/06/15 02:58:48;;;;;;;5.63;2.77;;;5.50;49.10;;;;;;8372898;28;20188;-66
2022/06/15 03:02:49;;;;;;;3.30;2.50;;;5.60;99.90;;;;;;8376009;28;20210;-66
2022/06/15 03:06:50;;;;;;;2.90;2.10;;;5.60;99.90;;;;;;8372385;28;20180;-65
2022/06/15 03:10:52;;;;;;;3.80;2.30;;;5.60;99.90;;;;;;8371676;28;20193;-64
2022/06/15 03:14:53;;;;;;;3.00;2.10;;;5.70;99.90;;;;;;8373738;28;20249;-65
2022/06/15 03:18:54;;;;;;;4.70;2.30;;;6.10;99.90;;;;;;8370399;28;20189;-65
2022/06/15 03:22:55;;;;;;;2.97;2.23;;;6.80;99.90;;;;;;8369222;28;20211;-65
2022/06/15 03:26:56;;;;;;;3.13;2.10;;;7.70;99.90;;;;;;8368469;28;20197;-66
2022/06/15 03:30:57;;;;;;;2.77;1.93;;;8.90;99.90;;;;;;8376111;28;20180;-65
2022/06/15 03:34:57;;;;;;;3.20;2.03;;;10.30;99.90;;;;;;8376734;28;20378;-65
2022/06/15 03:38:58;;;;;;;1.90;1.70;;;11.60;1.00;;;;;;8368628;28;20674;-66
2022/06/15 03:42:59;;;;;;;3.10;1.67;;;12.60;99.90;;;;;;8366787;28;20239;-65
2022/06/15 03:47:00;;;;;;;3.63;1.80;;;13.50;99.90;;;;;;8362147;28;20269;-66
2022/06/15 03:51:00;;;;;;;6.67;2.73;;;14.30;1.00;;;;;;8367996;28;20188;-66
2022/06/15 03:55:02;;;;;;;3.23;2.30;;;14.60;99.90;;;;;;8374760;28;20246;-67
2022/06/15 03:59:02;;;;;;;4.93;2.30;;;14.60;99.90;;;;;;8372182;28;20215;-66
2022/06/15 04:03:03;;;;;;;3.00;2.10;;;14.70;99.90;;;;;;8366665;28;20200;-68
2022/06/15 04:07:05;;;;;;;4.13;2.77;;;15.10;99.90;;;;;;8374300;28;20191;-68
2022/06/15 04:11:58;;;;;;;3.83;2.90;;;15.60;99.90;;;;;;8370798;28;20380;-66
2022/06/15 04:15:33;;;;;;;4.40;3.00;;;15.70;99.90;;;;;;8364900;28;20282;-66
2022/06/15 04:19:34;;;;;;;5.43;3.50;;;16.10;99.90;;;;;;8365975;28;20213;-68
2022/06/15 04:23:35;;;;;;;5.07;3.10;;;16.40;99.90;;;;;;8375666;28;20205;-68
2022/06/15 04:27:37;;;;;;;5.53;3.30;;;16.70;99.90;;;;;;8369349;28;20209;-68
2022/06/15 04:31:38;;;;;;;4.33;3.00;;;17.00;99.90;;;;;;8370465;28;20227;-68
2022/06/15 04:35:39;;;;;;;6.63;3.67;;;16.90;99.90;;;;;;8367864;28;20181;-68
2022/06/15 04:39:40;;;;;;;4.57;3.80;;;17.10;99.90;;;;;;8367726;28;20206;-65
2022/06/15 04:43:41;;;;;;;4.43;3.60;;;17.40;99.90;;;;;;8372492;28;20186;-64
2022/06/15 04:47:42;;;;;;;4.57;3.03;;;17.40;99.90;;;;;;8366875;28;20181;-64
2022/06/15 04:51:43;;;;;;;4.30;2.70;;;17.70;99.90;;;;;;8373554;28;20198;-69
2022/06/15 04:55:43;;;;;;;4.70;2.37;;;17.80;99.90;;;;;;8363429;28;20190;-64
2022/06/15 04:59:44;;;;;;;4.37;2.70;;;18.60;99.90;;;;;;8362286;28;20205;-66
2022/06/15 05:03:45;;;;;;;5.33;3.60;;;19.40;99.90;;;;;;8373415;28;20190;-69
2022/06/15 05:07:46;;;;;;;7.77;3.90;;;19.90;36.70;;;;;;8368805;28;20196;-65
2022/06/15 05:11:47;;;;;;;11.60;5.30;;;20.20;10.70;;;;;;8363364;28;20277;-60
2022/06/15 05:15:47;;;;;;;10.40;6.07;;;19.50;8.70;;;;;;8370200;28;20190;-65
2022/06/15 05:19:48;;;;;;;10.90;6.00;;;18.40;93.20;;;;;;8364780;28;20241;-72
2022/06/15 05:23:49;;;;;;;9.37;6.00;;;17.50;99.90;;;;;;8370430;28;20182;-63
2022/06/15 05:27:50;;;;;;;8.27;4.30;;;16.90;99.90;;;;;;8364786;28;20204;-66
2022/06/15 05:31:52;;;;;;;7.67;5.20;;;16.60;99.90;;;;;;8365986;28;20431;-66
2022/06/15 05:35:52;;;;;;;6.10;4.27;;;16.30;99.90;;;;;;8370456;28;20235;-66
2022/06/15 05:39:53;;;;;;;5.53;3.37;;;16.10;1.00;;;;;;8373442;28;20205;-62
2022/06/15 05:48:13;;;;;;;4.23;2.43;;;16.30;1.00;;;;;;8371031;28;20438;-61
2022/06/15 05:52:14;;;;;;;4.13;1.97;;;16.40;1.00;;;;;;8375052;28;20185;-61
2022/06/15 05:56:16;;;;;;;5.43;2.30;;;16.50;1.00;;;;;;8372802;28;20196;-67
2022/06/15 06:00:18;;;;;;;4.50;2.60;;;16.60;1.00;;;;;;8372513;28;20223;-64
2022/06/15 06:04:20;;;;;;;3.43;1.80;;;16.90;1.00;;;;;;8372638;28;20287;-63
2022/06/15 06:08:21;;;;;;;3.60;1.20;;;17.10;99.90;;;;;;8374528;28;20235;-63
2022/06/15 06:12:21;;;;;;;2.57;1.30;;;17.40;99.90;;;;;;8370495;28;20190;-65
2022/06/15 06:16:23;;;;;;;5.43;1.30;;;17.70;99.90;;;;;;8369090;28;20193;-67
2022/06/15 06:20:24;;;;;;;3.13;1.40;;;18.10;99.90;;;;;;8374005;28;20237;-63
2022/06/15 06:24:25;;;;;;;4.67;1.43;;;18.30;99.90;;;;;;8372081;28;20264;-62
2022/06/15 06:28:33;;;;;;;4.83;1.20;;;18.40;99.90;;;;;;8368150;28;20285;-63
2022/06/15 06:32:34;;;;;;;4.43;1.20;;;18.60;99.90;;;;;;8369881;28;20455;-66
2022/06/15 06:36:39;;;;;;;3.73;0.87;;;18.80;99.90;;;;;;8370197;28;20203;-63
2022/06/15 06:40:40;;;;;;;4.27;0.80;;;18.90;45.10;;;;;;8375072;28;20205;-64
2022/06/15 06:44:42;;;;;;;3.87;0.90;;;18.90;29.40;;;;;;8374486;28;20189;-60
2022/06/15 06:48:43;;;;;;;3.07;0.83;;;18.90;3.80;;;;;;8374128;28;20281;-65
2022/06/15 06:52:44;;;;;;;2.40;0.80;;;19.00;2.50;;;;;;8365282;28;20178;-66
2022/06/15 06:56:45;;;;;;;2.43;1.00;;;19.00;5.20;;;;;;8373406;28;20209;-63
2022/06/15 07:00:46;;;;;;;2.63;0.77;;;19.00;17.90;;;;;;8369995;28;20216;-63
2022/06/15 07:04:47;;;;;;;5.50;1.43;;;19.00;13.70;;;;;;8366019;28;20182;-63
2022/06/15 07:08:50;;;;;;;2.47;1.10;;;19.00;12.20;;;;;;8365154;28;20212;-64
2022/06/15 07:12:53;;;;;;;4.00;1.10;;;19.20;13.60;;;;;;8364664;28;20193;-62
2022/06/15 07:16:54;;;;;;;4.43;0.67;;;19.40;1.00;;;;;;8375434;28;20216;-68
2022/06/15 07:20:54;;;;;;;3.67;0.90;;;19.50;1.00;;;;;;8369668;28;20312;-65
2022/06/15 07:24:56;;;;;;;2.57;0.70;;;19.60;1.00;;;;;;8370444;28;20177;-63
2022/06/15 07:28:57;;;;;;;7.07;1.13;;;19.80;1.00;;;;;;8370152;28;20231;-66
2022/06/15 07:32:58;;;;;;;2.27;1.27;;;19.90;1.00;;;;;;8369624;28;20378;-62
2022/06/15 07:36:58;;;;;;;4.07;1.30;;;19.90;1.00;;;;;;8365827;28;20672;-64
2022/06/15 07:40:59;;;;;;;4.27;1.07;;;20.00;1.00;;;;;;8370587;28;20205;-63
2022/06/15 07:45:00;;;;;;;5.47;1.20;;;20.20;1.00;;;;;;8374858;28;20212;-63
2022/06/15 07:53:21;;;;;;;3.57;1.40;;;20.40;1.00;;;;;;8367699;28;20197;-66
2022/06/15 07:57:23;;;;;;;2.60;1.23;;;20.50;1.00;;;;;;8372252;28;20192;-64
2022/06/15 08:01:24;;;;;;;5.30;1.20;;;20.70;1.00;;;;;;8369671;28;20214;-64
2022/06/15 08:05:26;;;;;;;3.83;1.30;;;20.90;1.00;;;;;;8372345;28;20255;-62
2022/06/15 08:09:28;;;;;;;2.73;1.43;;;21.20;1.00;;;;;;8367233;28;20178;-63
2022/06/15 08:13:28;;;;;;;3.47;1.17;;;21.30;1.00;;;;;;8370221;28;20196;-60
2022/06/15 08:17:33;;;;;;;6.23;1.67;;;21.30;1.00;;;;;;8361962;28;20261;-62
2022/06/15 08:21:36;;;;;;;4.77;1.33;;;21.50;1.00;;;;;;8364532;28;20201;-64
2022/06/15 08:25:45;;;;;;;4.13;1.50;;;21.70;1.00;;;;;;8371885;28;20242;-64
2022/06/15 08:29:47;;;;;;;4.73;1.40;;;21.60;1.00;;;;;;8364778;28;20202;-68
2022/06/15 08:33:48;;;;;;;2.17;0.87;;;21.60;1.00;;;;;;8365170;28;20188;-61
2022/06/15 08:37:49;;;;;;;3.97;1.37;;;21.70;1.00;;;;;;8368467;28;20481;-64
2022/06/15 08:42:21;;;;;;;3.27;1.10;;;21.80;1.00;;;;;;8362519;28;20209;-67
2022/06/15 08:46:28;;;;;;;5.13;1.37;;;22.00;1.00;;;;;;8369277;28;20205;-63
2022/06/15 08:50:28;;;;;;;4.00;1.10;;;22.00;1.00;;;;;;8368175;28;20197;-62
2022/06/15 08:54:40;;;;;;;2.07;1.20;;;22.00;1.00;;;;;;8366796;28;20561;-64
2022/06/15 08:58:46;;;;;;;3.13;0.90;;;22.00;1.00;;;;;;8371415;28;20185;-67
2022/06/15 09:03:05;;;;;;;2.23;0.87;;;22.10;1.00;;;;;;8359897;28;20273;-63
2022/06/15 09:07:20;;;;;;;3.80;0.93;;;22.20;1.00;;;;;;8370997;28;20189;-64
2022/06/15 09:11:34;;;;;;;3.63;1.30;;;22.40;1.00;;;;;;8363219;28;20190;-63
2022/06/15 09:15:42;;;;;;;2.13;1.10;;;22.60;1.00;;;;;;8360337;28;20212;-62
2022/06/15 09:19:48;;;;;;;3.30;1.30;;;22.90;1.00;;;;;;8371711;28;20232;-61
2022/06/15 09:24:07;;;;;;;2.67;0.90;;;23.20;1.00;;;;;;8364896;28;20173;-63
2022/06/15 09:28:10;;;;;;;4.20;1.00;;;23.20;1.00;;;;;;8365875;28;20197;-60
2022/06/15 09:32:21;;;;;;;2.27;0.90;;;23.10;1.00;;;;;;8371136;28;20184;-66
2022/06/15 09:36:37;;;;;;;2.33;1.13;;;23.00;1.00;;;;;;8370368;28;20177;-60
2022/06/15 09:41:04;;;;;;;4.90;1.20;;;23.10;1.00;;;;;;8362057;28;20287;-63
2022/06/15 09:45:15;;;;;;;3.43;1.10;;;23.40;1.00;;;;;;8380146;28;20188;-62
2022/06/15 09:49:53;;;;;;;3.40;1.03;;;23.50;1.00;;;;;;8368092;28;20181;-61
2022/06/15 09:54:26;;;;;;;2.97;1.10;;;23.50;1.00;;;;;;8363924;28;20165;-61
2022/06/15 09:58:38;;;;;;;4.07;0.97;;;23.60;1.00;;;;;;8369578;28;20247;-62
2022/06/15 10:02:42;;;;;;;5.93;1.20;;;23.40;1.00;;;;;;8362704;28;20209;-63
2022/06/15 10:06:48;;;;;;;7.37;1.43;;;23.60;1.00;;;;;;8375823;28;20174;-67
2022/06/15 10:10:57;;;;;;;3.17;1.00;;;23.80;1.00;;;;;;8364877;28;20255;-64
2022/06/15 10:15:07;;;;;;;3.33;1.20;;;23.90;1.00;;;;;;8372242;28;20181;-63
2022/06/15 10:19:10;;;;;;;3.83;1.40;;;24.10;1.00;;;;;;8368373;28;20185;-63
2022/06/15 10:23:46;;;;;;;3.27;0.90;;;24.60;1.00;;;;;;8367737;28;20205;-62
2022/06/15 10:27:47;;;;;;;4.73;1.23;;;25.10;1.00;;;;;;8366204;28;20213;-62
2022/06/15 10:32:09;;;;;;;2.23;1.13;;;25.70;1.00;;;;;;8368986;28;20178;-63
2022/06/15 10:36:36;;;;;;;3.55;1.00;;;26.20;1.00;;;;;;8368215;28;20189;-64
2022/06/15 10:40:38;;;;;;;1.85;0.93;;;26.70;1.00;;;;;;8369798;28;20211;-61
2022/06/15 10:44:51;;;;;;;2.47;0.90;;;27.30;1.00;;;;;;8376161;28;20174;-63
2022/06/15 10:48:57;;;;;;;3.20;1.30;;;27.30;1.00;;;;;;8380585;28;20273;-60
2022/06/15 10:53:05;;;;;;;1.27;0.80;;;27.20;1.00;;;;;;8371635;28;20201;-62
2022/06/15 11:02:06;;;;;;;4.93;1.02;;;26.60;1.00;;;;;;8370249;28;20248;-64
2022/06/15 11:06:08;;;;;;;3.00;0.90;;;26.50;1.00;;;;;;8373562;28;20182;-62
2022/06/15 11:10:29;;;;;;;3.15;0.88;;;26.30;1.00;;;;;;8372385;28;20184;-61
2022/06/15 11:14:49;;;;;;;1.65;0.60;;;26.60;1.00;;;;;;8368645;28;20178;-61
2022/06/15 11:19:02;;;;;;;3.55;0.80;;;26.60;1.00;;;;;;8371514;28;20184;-63
2022/06/15 11:23:28;;;;;;;2.08;0.82;;;26.70;1.00;;;;;;8375807;28;20205;-62
2022/06/15 11:27:36;;;;;;;2.70;0.70;;;26.40;1.00;;;;;;8386907;28;20220;-61
2022/06/15 11:31:40;;;;;;;4.95;1.00;;;26.40;1.00;;;;;;8370033;28;20189;-60
2022/06/15 11:36:01;;;;;;;2.78;1.02;;;26.30;1.00;;;;;;8374251;28;20276;-60
2022/06/15 11:40:14;;;;;;;2.35;0.90;;;26.30;1.00;;;;;;8367523;28;20247;-61
2022/06/15 11:44:27;;;;;;;3.05;0.82;;;26.40;1.00;;;;;;8367869;28;20324;-63
2022/06/15 11:48:46;;;;;;;3.45;0.73;;;26.60;1.00;;;;;;8368844;28;20181;-61
2022/06/15 11:53:11;;;;;;;2.60;0.80;;;26.60;1.00;;;;;;8365753;28;20213;-60
2022/06/15 11:57:30;;;;;;;4.68;1.15;;;26.20;1.00;;;;;;8373615;28;20191;-63
2022/06/15 12:01:46;;;;;;;2.35;0.82;;;25.70;1.00;;;;;;8367415;28;20209;-61
2022/06/15 12:05:59;;;;;;;2.65;0.90;;;25.70;1.00;;;;;;8371321;28;20182;-62
2022/06/15 12:10:34;;;;;;;1.75;0.77;;;25.90;1.00;;;;;;8369757;28;20265;-60
2022/06/15 12:14:49;;;;;;;3.45;0.90;;;26.10;1.00;;;;;;8359171;28;20209;-62
2022/06/15 12:19:22;;;;;;;4.40;0.88;;;26.30;1.00;;;;;;8376229;28;20190;-60
2022/06/15 12:23:43;;;;;;;1.05;0.68;;;26.40;1.00;;;;;;8376844;28;20193;-63
2022/06/15 12:28:18;;;;;;;2.38;1.02;;;26.60;1.00;;;;;;8368527;28;20205;-62
2022/06/15 12:32:38;;;;;;;5.07;1.10;;;26.30;1.00;;;;;;8362100;28;20213;-62
2022/06/15 12:36:47;;;;;;;1.40;0.73;;;26.20;1.00;;;;;;8388228;28;20181;-66
2022/06/15 12:40:59;;;;;;;3.85;1.13;;;26.20;1.00;;;;;;8371220;28;20206;-62
2022/06/15 12:45:07;;;;;;;4.20;1.02;;;25.90;1.00;;;;;;8372983;28;20188;-66
2022/06/15 12:49:29;;;;;;;6.78;1.30;;;26.10;1.00;;;;;;8368032;28;20178;-62
2022/06/15 12:54:11;;;;;;;0.73;0.60;;;25.80;1.00;;;;;;8368221;28;20173;-62
2022/06/15 12:58:41;;;;;;;2.83;1.00;;;25.80;1.00;;;;;;8369838;28;20201;-64
2022/06/15 13:02:42;;;;;;;2.60;0.93;;;25.80;1.00;;;;;;8359005;28;20225;-67
2022/06/15 13:06:43;;;;;;;5.40;1.07;;;25.50;1.00;;;;;;8371658;28;20200;-64
2022/06/15 13:10:53;;;;;;;1.97;0.80;;;25.60;1.00;;;;;;8362022;28;20204;-63
2022/06/15 13:14:58;;;;;;;4.70;0.80;;;26.00;1.00;;;;;;8371103;28;20269;-61
2022/06/15 13:18:59;;;;;;;6.68;1.60;;;26.40;1.00;;;;;;8369699;28;20221;-60
2022/06/15 13:23:00;;;;;;;3.35;1.00;;;26.60;1.00;;;;;;8361392;28;20212;-60
2022/06/15 13:27:02;;;;;;;1.65;0.65;;;26.60;1.00;;;;;;8363527;28;20223;-64
2022/06/15 13:31:13;;;;;;;2.95;0.90;;;26.70;1.00;;;;;;8368148;28;20185;-63
2022/06/15 13:35:28;;;;;;;2.65;1.10;;;26.80;1.00;;;;;;8366345;28;20189;-60
2022/06/15 13:39:53;;;;;;;1.90;0.90;;;27.10;1.00;;;;;;8365689;28;20185;-64
2022/06/15 13:43:56;;;;;;;3.25;0.75;;;27.10;1.00;;;;;;8369648;28;20272;-63
2022/06/15 13:48:17;;;;;;;2.38;0.80;;;27.20;1.00;;;;;;8363689;28;20177;-63
2022/06/15 13:52:26;;;;;;;2.25;0.77;;;27.20;1.00;;;;;;8377825;28;20196;-62
2022/06/15 13:57:11;;;;;;;2.08;0.73;;;27.20;1.00;;;;;;8368994;28;20281;-63
2022/06/15 14:01:18;;;;;;;1.35;0.80;;;27.00;1.00;;;;;;8365296;28;20266;-62
2022/06/15 14:06:00;;;;;;;1.70;0.70;;;27.00;1.00;;;;;;8376105;28;20184;-61
2022/06/15 14:10:26;;;;;;;2.67;0.82;;;27.00;1.00;;;;;;8379893;28;20215;-62
2022/06/15 14:14:53;;;;;;;2.33;0.82;;;27.00;1.00;;;;;;8370888;28;20239;-61
2022/06/15 14:19:27;;;;;;;1.25;0.77;;;27.10;1.00;;;;;;8370195;28;20186;-63
2022/06/15 14:23:36;;;;;;;2.58;0.75;;;27.30;1.00;;;;;;8369014;28;20224;-64
2022/06/15 14:27:37;;;;;;;2.75;0.80;;;27.50;1.00;;;;;;8384352;28;20552;-64
2022/06/15 14:31:38;;;;;;;5.85;0.90;;;27.70;1.00;;;;;;8378649;28;20281;-62
2022/06/15 14:35:39;;;;;;;1.38;0.90;;;27.70;1.00;;;;;;8378911;28;20208;-62
2022/06/15 14:39:47;;;;;;;1.70;0.77;;;27.70;1.00;;;;;;8383583;28;20182;-61
2022/06/15 14:43:52;;;;;;;2.42;0.82;;;27.80;1.00;;;;;;8359051;28;20439;-63
2022/06/15 14:48:02;;;;;;;1.45;0.63;;;27.90;1.00;;;;;;8382610;28;20182;-63
2022/06/15 14:52:22;;;;;;;2.35;0.80;;;27.80;1.00;;;;;;8369649;28;20557;-63
2022/06/15 14:56:29;;;;;;;2.42;0.90;;;27.90;1.00;;;;;;8381058;28;20261;-62
2022/06/15 15:00:35;;;;;;;2.63;0.93;;;27.70;1.00;;;;;;8378171;28;20240;-63
2022/06/15 15:04:41;;;;;;;4.65;0.82;;;27.40;1.00;;;;;;8363534;28;20193;-64
2022/06/15 15:08:45;;;;;;;1.27;0.68;;;27.10;1.00;;;;;;8371737;28;20197;-61
2022/06/15 15:12:46;;;;;;;3.10;0.90;;;26.80;1.00;;;;;;8367281;28;20219;-64
2022/06/15 15:16:49;;;;;;;4.05;1.00;;;26.80;1.00;;;;;;8378923;28;20184;-61
2022/06/15 15:20:53;;;;;;;2.88;0.90;;;26.80;1.00;;;;;;8379378;28;20518;-61
2022/06/15 15:24:54;;;;;;;3.65;0.95;;;26.60;1.00;;;;;;8371647;28;20205;-62
2022/06/15 15:37:54;;;;;;;3.03;0.85;;;26.90;1.00;;;;;;8371322;28;20463;-65
2022/06/15 15:41:55;;;;;;;1.35;0.98;;;26.80;1.00;;;;;;8367908;28;20228;-62
2022/06/15 15:45:56;;;;;;;2.40;0.80;;;26.70;1.00;;;;;;8367154;28;20181;-63
2022/06/15 15:49:57;;;;;;;1.63;0.70;;;26.90;1.00;;;;;;8369605;28;20183;-63
2022/06/15 15:53:58;;;;;;;1.48;0.82;;;27.00;1.00;;;;;;8372187;28;20193;-63
2022/06/15 15:57:59;;;;;;;1.30;0.90;;;27.10;1.00;;;;;;8367045;28;20185;-63
2022/06/15 16:02:02;;;;;;;3.60;1.10;;;27.20;1.00;;;;;;8379077;28;21423;-62
2022/06/15 16:06:03;;;;;;;3.80;1.45;;;27.10;1.00;;;;;;8370444;28;20176;-62
2022/06/15 16:10:07;;;;;;;4.10;0.90;;;27.10;1.00;;;;;;8364895;28;20192;-61
2022/06/15 16:14:08;;;;;;;2.00;1.08;;;27.00;1.00;;;;;;8370133;28;20186;-65
2022/06/15 16:18:13;;;;;;;1.00;0.70;;;26.90;1.00;;;;;;8373078;28;20307;-65
2022/06/15 16:22:13;;;;;;;1.38;0.82;;;27.00;1.00;;;;;;8364742;28;20292;-63
2022/06/15 16:26:14;;;;;;;1.23;0.70;;;27.00;1.00;;;;;;8362680;28;20193;-63
2022/06/15 16:30:18;;;;;;;2.00;0.80;;;26.60;1.00;;;;;;8369486;28;20205;-61
2022/06/15 16:34:19;;;;;;;4.53;1.20;;;26.50;1.00;;;;;;8373527;28;20211;-64
2022/06/15 16:38:20;;;;;;;3.80;1.15;;;26.50;1.00;;;;;;8375872;28;20189;-66
2022/06/15 16:42:21;;;;;;;3.22;0.93;;;26.30;1.00;;;;;;8373154;28;20200;-65
2022/06/15 16:46:26;;;;;;;4.82;1.38;;;26.20;1.00;;;;;;8366994;28;20273;-63
2022/06/15 16:50:29;;;;;;;3.22;1.00;;;26.30;1.00;;;;;;8363491;28;20650;-64
2022/06/15 16:54:32;;;;;;;2.50;1.00;;;26.30;1.00;;;;;;8364266;28;20234;-63
2022/06/15 16:58:34;;;;;;;2.70;0.90;;;26.20;1.00;;;;;;8367842;28;20182;-63
2022/06/15 17:02:34;;;;;;;1.93;0.83;;;26.20;1.00;;;;;;8362372;28;20213;-64
2022/06/15 17:06:38;;;;;;;2.03;0.90;;;26.30;1.00;;;;;;8372580;28;20177;-64
2022/06/15 17:10:39;;;;;;;1.75;1.00;;;26.40;1.00;;;;;;8363473;28;20190;-64
2022/06/15 17:14:40;;;;;;;1.67;0.90;;;26.80;1.00;;;;;;8370693;28;20220;-64
2022/06/15 17:18:41;;;;;;;1.40;0.77;;;27.50;1.00;;;;;;8372828;28;20519;-62
2022/06/15 17:22:42;;;;;;;1.55;0.70;;;28.60;1.00;;;;;;8369027;28;20216;-62
2022/06/15 17:26:48;;;;;;;2.22;0.90;;;29.20;1.00;;;;;;8362456;28;20185;-63
2022/06/15 17:30:49;;;;;;;2.15;0.60;;;29.60;1.00;;;;;;8365768;28;20254;-60
2022/06/15 17:34:50;;;;;;;3.13;1.10;;;30.50;1.00;;;;;;8360561;28;20189;-59
2022/06/15 17:38:51;;;;;;;1.13;0.77;;;31.60;1.00;;;;;;8364096;28;20182;-60
2022/06/15 17:42:52;;;;;;;3.47;0.90;;;32.00;1.00;;;;;;8364887;28;20209;-59
2022/06/15 17:46:53;;;;;;;1.65;0.70;;;32.50;1.00;;;;;;8365413;28;20189;-61
2022/06/15 17:50:54;;;;;;;1.67;0.80;;;33.00;1.00;;;;;;8365085;28;20213;-64
2022/06/15 17:54:55;;;;;;;2.28;1.00;;;32.90;1.00;;;;;;8364731;28;20267;-60
2022/06/15 17:58:56;;;;;;;3.85;1.17;;;32.60;1.00;;;;;;8363863;28;20208;-59
2022/06/15 18:02:56;;;;;;;3.65;1.13;;;32.40;1.00;;;;;;8368690;28;20208;-61
2022/06/15 18:06:57;;;;;;;3.83;1.10;;;32.00;1.00;;;;;;8371457;28;20190;-60
2022/06/15 18:11:01;;;;;;;3.63;1.55;;;31.60;1.00;;;;;;8362722;28;20234;-58
2022/06/15 18:15:03;;;;;;;3.00;1.10;;;30.70;1.00;;;;;;8370673;28;20180;-62
2022/06/15 18:19:14;;;;;;;6.47;1.10;;;30.50;1.00;;;;;;8366215;28;20292;-62
2022/06/15 18:23:16;;;;;;;4.25;1.00;;;30.60;1.00;;;;;;8363280;28;20260;-64
2022/06/15 18:27:21;;;;;;;1.70;0.85;;;30.80;1.00;;;;;;8359833;28;20213;-61
2022/06/15 18:31:22;;;;;;;5.53;1.35;;;31.00;1.00;;;;;;8374791;28;20185;-62
2022/06/15 18:35:30;;;;;;;4.20;1.20;;;31.00;1.00;;;;;;8360539;28;20178;-63
2022/06/15 18:39:31;;;;;;;4.13;0.95;;;31.00;1.00;;;;;;8366966;28;20204;-63
2022/06/15 18:47:52;;;;;;;7.80;2.10;;;30.30;1.00;;;;;;8363643;28;20184;-62
2022/06/15 18:51:54;;;;;;;6.63;1.65;;;29.80;1.00;;;;;;8372955;28;20185;-61
2022/06/15 18:55:56;;;;;;;5.97;1.83;;;29.20;1.00;;;;;;8371651;28;20181;-61
2022/06/15 19:00:02;;;;;;;20.08;4.10;;;28.60;1.00;;;;;;8373580;28;20259;-62
2022/06/15 19:04:03;;;;;;;10.73;2.85;;;27.70;1.00;;;;;;8368356;28;20219;-61
2022/06/15 19:08:06;;;;;;;5.90;1.90;;;26.50;1.00;;;;;;8368461;28;20277;-60
2022/06/15 19:12:07;;;;;;;3.80;1.67;;;25.40;1.00;;;;;;8370610;28;20186;-62
2022/06/15 19:16:08;;;;;;;7.17;2.43;;;24.70;1.00;;;;;;8373412;28;20185;-62
2022/06/15 19:20:10;;;;;;;6.40;2.73;;;24.00;1.00;;;;;;8369595;28;20209;-63
2022/06/15 19:24:11;;;;;;;5.70;2.60;;;23.50;1.00;;;;;;8371829;28;20181;-61
2022/06/15 19:28:12;;;;;;;3.70;2.30;;;23.00;1.00;;;;;;8364398;28;20212;-61
2022/06/15 19:32:13;;;;;;;3.73;2.10;;;22.30;1.00;;;;;;8368795;28;20193;-63
2022/06/15 19:36:14;;;;;;;2.53;1.90;;;21.70;41.90;;;;;;8372426;28;20196;-65
2022/06/15 19:40:19;;;;;;;1.73;1.50;;;21.30;99.90;;;;;;8368826;28;20217;-64
2022/06/15 19:44:20;;;;;;;1.80;1.50;;;20.80;99.90;;;;;;8367312;28;20192;-65
2022/06/15 19:48:23;;;;;;;2.63;1.43;;;20.50;99.90;;;;;;8372178;28;20239;-64
2022/06/15 19:52:24;;;;;;;4.97;1.60;;;20.10;99.90;;;;;;8370130;28;20177;-65
2022/06/15 19:56:24;;;;;;;2.27;1.40;;;19.70;99.90;;;;;;8368839;28;20189;-65
2022/06/15 20:00:26;;;;;;;2.57;1.40;;;19.40;99.90;;;;;;8371235;28;20240;-64
2022/06/15 20:04:27;;;;;;;2.87;1.60;;;19.10;99.90;;;;;;8367715;28;20193;-66
2022/06/15 20:08:28;;;;;;;2.73;1.67;;;18.90;1.00;;;;;;8367349;28;20188;-64
2022/06/15 20:12:28;;;;;;;4.07;1.30;;;18.70;1.00;;;;;;8368867;28;20481;-63
2022/06/15 20:16:44;;;;;;;3.07;2.23;;;18.50;1.00;;;;;;8371119;28;20201;-66
2022/06/15 20:20:47;;;;;;;2.63;1.30;;;18.20;1.00;;;;;;8369081;28;20225;-66
2022/06/15 20:24:50;;;;;;;2.33;1.67;;;18.00;1.00;;;;;;8365581;28;20194;-66
2022/06/15 20:29:05;;;;;;;1.80;1.43;;;17.80;15.60;;;;;;8367531;28;20254;-66
2022/06/15 20:33:06;;;;;;;3.47;1.47;;;17.60;17.60;;;;;;8368559;28;20276;-70
2022/06/15 20:37:07;;;;;;;1.93;1.60;;;17.50;42.20;;;;;;8367241;28;20186;-66
2022/06/15 20:41:10;;;;;;;4.53;2.57;;;17.40;94.20;;;;;;8361224;28;20214;-66
2022/06/15 20:45:12;;;;;;;2.53;2.03;;;17.20;99.90;;;;;;8363140;28;20182;-66
2022/06/15 20:49:19;;;;;;;2.87;1.77;;;17.10;99.90;;;;;;8363593;28;20186;-66
2022/06/15 20:53:20;;;;;;;5.67;2.50;;;16.90;99.90;;;;;;8365076;28;20189;-66
2022/06/15 20:57:20;;;;;;;3.07;2.00;;;16.80;99.90;;;;;;8364701;28;20227;-66
2022/06/15 21:01:21;;;;;;;2.87;2.00;;;16.60;99.90;;;;;;8365507;28;20454;-66
2022/06/15 21:05:24;;;;;;;2.77;1.77;;;16.30;99.90;;;;;;8361728;28;20192;-66
2022/06/15 21:09:26;;;;;;;4.67;1.90;;;16.10;99.90;;;;;;8371405;28;20289;-66
2022/06/15 21:17:46;;;;;;;2.57;1.90;;;15.80;1.00;;;;;;8362496;28;20212;-67
2022/06/15 21:21:47;;;;;;;2.90;2.00;;;15.60;1.00;;;;;;8356563;28;20201;-67
2022/06/15 21:25:48;;;;;;;2.23;1.87;;;15.40;1.00;;;;;;8364206;28;20532;-66
2022/06/15 21:29:49;;;;;;;2.83;1.60;;;15.30;1.00;;;;;;8363923;28;20259;-66
2022/06/15 21:33:51;;;;;;;4.13;2.40;;;15.20;46.00;;;;;;8365349;28;20182;-67
2022/06/15 21:37:55;;;;;;;2.20;1.90;;;15.20;66.50;;;;;;8364169;28;20178;-67
2022/06/15 21:41:59;;;;;;;2.87;2.20;;;15.10;97.40;;;;;;8370441;28;20204;-67
2022/06/15 21:46:03;;;;;;;2.77;2.03;;;14.90;99.90;;;;;;8364986;28;20185;-71
2022/06/15 21:50:07;;;;;;;3.60;2.20;;;14.80;99.90;;;;;;8375675;28;20407;-66
2022/06/15 21:54:09;;;;;;;2.63;2.10;;;14.60;99.90;;;;;;8366643;28;20209;-67
2022/06/15 21:58:10;;;;;;;2.80;2.27;;;14.50;99.90;;;;;;8365054;28;20185;-67
2022/06/15 22:02:11;;;;;;;2.87;2.10;;;14.50;99.90;;;;;;8365649;28;20217;-66
2022/06/15 22:06:12;;;;;;;2.30;2.03;;;14.40;1.00;;;;;;8364080;28;20216;-66